createdAt,value
2018-10-11T00:01:20.436Z,11.60
2018-10-11T00:03:48.852Z,11.70
2018-10-11T00:06:17.357Z,11.80
2018-10-11T00:08:45.652Z,12.10
2018-10-11T00:11:13.974Z,12.10
2018-10-11T00:13:42.412Z,12.10
2018-10-11T00:16:10.705Z,12.20
2018-10-11T00:18:38.993Z,12.10
2018-10-11T00:21:07.530Z,12.10
2018-10-11T00:23:35.841Z,12.10
2018-10-11T00:26:04.590Z,12.20
2018-10-11T00:28:33.208Z,12.20
2018-10-11T00:31:01.603Z,12.20
2018-10-11T00:33:29.892Z,12.30
2018-10-11T00:35:58.789Z,12.30
2018-10-11T00:38:27.093Z,12.40
2018-10-11T00:40:55.464Z,12.40
2018-10-11T00:43:23.788Z,12.30
2018-10-11T00:45:52.269Z,12.20
2018-10-11T00:48:20.553Z,12.10
2018-10-11T00:50:48.905Z,12.10
2018-10-11T00:53:17.199Z,12.00
2018-10-11T00:55:45.480Z,11.90
2018-10-11T00:58:13.801Z,11.90
2018-10-11T01:00:42.119Z,11.90
2018-10-11T01:03:10.462Z,11.80
2018-10-11T01:05:38.791Z,11.80
2018-10-11T01:08:07.100Z,11.90
2018-10-11T01:10:35.452Z,11.80
2018-10-11T01:13:03.937Z,11.80
2018-10-11T01:15:32.300Z,11.90
2018-10-11T01:18:00.714Z,11.90
2018-10-11T01:20:29.037Z,11.90
2018-10-11T01:22:57.525Z,11.90
2018-10-11T01:25:25.825Z,11.80
2018-10-11T01:27:54.490Z,11.80
2018-10-11T01:30:22.929Z,11.90
2018-10-11T01:32:51.220Z,11.90
2018-10-11T01:35:19.558Z,11.90
2018-10-11T01:37:47.866Z,11.90
2018-10-11T01:40:16.175Z,11.80
2018-10-11T01:42:44.507Z,11.80
2018-10-11T01:45:12.817Z,11.70
2018-10-11T01:47:41.173Z,11.70
2018-10-11T01:50:09.521Z,11.70
2018-10-11T01:52:37.826Z,11.60
2018-10-11T01:55:06.924Z,11.60
2018-10-11T01:57:35.285Z,11.70
2018-10-11T02:00:03.925Z,11.70
2018-10-11T02:02:32.228Z,11.70
2018-10-11T02:05:00.629Z,11.70
2018-10-11T02:07:28.929Z,11.70
2018-10-11T02:09:57.325Z,11.70
2018-10-11T02:12:25.656Z,11.80
2018-10-11T02:14:53.981Z,11.80
2018-10-11T02:17:22.323Z,11.80
2018-10-11T02:19:50.647Z,11.80
2018-10-11T02:22:18.937Z,11.70
2018-10-11T02:24:47.229Z,11.70
2018-10-11T02:27:15.869Z,11.70
2018-10-11T02:29:44.156Z,11.70
2018-10-11T02:32:12.515Z,11.70
2018-10-11T02:34:40.901Z,11.70
2018-10-11T02:37:09.514Z,11.60
2018-10-11T02:39:37.817Z,11.50
2018-10-11T02:42:06.171Z,11.50
2018-10-11T02:44:34.456Z,11.50
2018-10-11T02:47:03.993Z,11.50
2018-10-11T02:49:32.326Z,11.50
2018-10-11T02:52:00.752Z,11.50
2018-10-11T02:54:29.074Z,11.40
2018-10-11T02:57:01.608Z,11.40
2018-10-11T02:59:32.585Z,11.40
2018-10-11T03:02:02.940Z,11.30
2018-10-11T03:04:32.132Z,11.30
2018-10-11T03:07:00.489Z,11.30
2018-10-11T03:09:28.885Z,11.40
2018-10-11T03:11:57.585Z,11.40
2018-10-11T03:14:26.490Z,11.50
2018-10-11T03:16:54.917Z,11.40
2018-10-11T03:19:23.241Z,11.40
2018-10-11T03:21:51.536Z,11.30
2018-10-11T03:24:19.901Z,11.30
2018-10-11T03:26:48.156Z,11.20
2018-10-11T03:29:16.435Z,11.20
2018-10-11T03:31:45.069Z,11.00
2018-10-11T03:34:13.352Z,11.00
2018-10-11T03:36:41.641Z,11.00
2018-10-11T03:39:13.689Z,11.00
2018-10-11T03:41:41.987Z,11.00
2018-10-11T03:44:10.284Z,10.90
2018-10-11T03:46:38.631Z,10.90
2018-10-11T03:49:06.980Z,10.90
2018-10-11T03:51:35.280Z,10.80
2018-10-11T03:54:03.666Z,10.80
2018-10-11T03:56:31.960Z,10.80
2018-10-11T03:59:00.313Z,10.80
2018-10-11T04:01:28.692Z,10.80
2018-10-11T04:03:57.641Z,10.80
2018-10-11T04:06:26.040Z,10.80
2018-10-11T04:08:54.834Z,10.70
2018-10-11T04:11:23.137Z,10.70
2018-10-11T04:13:51.437Z,10.70
2018-10-11T04:16:19.784Z,10.80
2018-10-11T04:18:48.065Z,10.80
2018-10-11T04:21:16.348Z,10.80
2018-10-11T04:23:44.661Z,10.80
2018-10-11T04:26:12.973Z,10.80
2018-10-11T04:28:41.277Z,10.80
2018-10-11T04:31:09.625Z,10.80
2018-10-11T04:33:37.917Z,10.70
2018-10-11T04:36:06.365Z,10.70
2018-10-11T04:38:34.690Z,10.70
2018-10-11T04:41:02.981Z,10.60
2018-10-11T04:43:31.277Z,10.70
2018-10-11T04:45:59.919Z,10.50
2018-10-11T04:48:28.208Z,10.50
2018-10-11T04:50:56.599Z,10.50
2018-10-11T04:53:24.941Z,10.50
2018-10-11T04:55:53.249Z,10.50
2018-10-11T04:58:21.546Z,10.40
2018-10-11T05:00:50.184Z,10.40
2018-10-11T05:03:18.472Z,10.50
2018-10-11T05:05:46.848Z,10.60
2018-10-11T05:08:15.180Z,10.60
2018-10-11T05:10:44.013Z,10.60
2018-10-11T05:13:12.751Z,10.60
2018-10-11T05:15:42.132Z,10.60
2018-10-11T05:18:11.440Z,10.60
2018-10-11T05:20:39.764Z,10.70
2018-10-11T05:23:08.093Z,10.60
2018-10-11T05:25:36.468Z,10.60
2018-10-11T05:28:04.864Z,10.60
2018-10-11T05:30:33.245Z,10.50
2018-10-11T05:33:01.651Z,10.40
2018-10-11T05:35:29.960Z,10.30
2018-10-11T05:37:58.424Z,10.20
2018-10-11T05:40:26.741Z,10.20
2018-10-11T05:42:55.350Z,10.20
2018-10-11T05:45:25.125Z,10.10
2018-10-11T05:47:53.456Z,10.20
2018-10-11T05:50:21.920Z,10.30
2018-10-11T05:52:50.413Z,10.30
2018-10-11T05:55:18.767Z,10.40
2018-10-11T05:57:47.145Z,10.40
2018-10-11T06:00:15.539Z,10.40
2018-10-11T06:02:58.019Z,10.40
2018-10-11T06:05:26.564Z,10.50
2018-10-11T06:07:54.990Z,10.60
2018-10-11T06:10:23.328Z,10.90
2018-10-11T06:12:51.757Z,11.20
2018-10-11T06:15:20.129Z,11.40
2018-10-11T06:17:48.529Z,11.50
2018-10-11T06:20:16.900Z,11.70
2018-10-11T06:22:45.213Z,12.00
2018-10-11T06:25:13.530Z,12.20
2018-10-11T06:27:42.956Z,12.60
2018-10-11T06:30:12.153Z,13.10
2018-10-11T06:32:40.545Z,13.60
2018-10-11T06:35:09.077Z,14.50
2018-10-11T06:37:37.682Z,15.60
2018-10-11T06:40:06.009Z,16.80
2018-10-11T06:42:34.413Z,17.90
2018-10-11T06:45:03.277Z,18.90
2018-10-11T06:47:32.701Z,19.50
2018-10-11T06:50:02.193Z,20.00
2018-10-11T06:52:30.440Z,20.20
2018-10-11T06:54:58.756Z,20.30
2018-10-11T06:57:27.084Z,20.30
2018-10-11T06:59:55.369Z,20.40
2018-10-11T07:02:23.667Z,20.30
2018-10-11T07:04:51.989Z,20.50
2018-10-11T07:07:20.337Z,20.80
2018-10-11T07:09:48.584Z,20.90
2018-10-11T07:12:16.900Z,21.10
2018-10-11T07:14:45.249Z,21.30
2018-10-11T07:17:13.581Z,21.50
2018-10-11T07:19:41.898Z,21.90
2018-10-11T07:22:10.420Z,22.30
2018-10-11T07:24:38.709Z,22.40
2018-10-11T07:27:07.079Z,21.90
2018-10-11T07:29:35.372Z,21.50
2018-10-11T07:32:03.857Z,19.90
2018-10-11T07:34:32.276Z,18.00
2018-10-11T07:37:00.529Z,16.40
2018-10-11T07:39:28.865Z,15.30
2018-10-11T07:41:57.180Z,14.70
2018-10-11T07:44:25.461Z,14.30
2018-10-11T07:46:53.751Z,14.10
2018-10-11T07:49:22.077Z,14.00
2018-10-11T07:51:50.370Z,14.00
2018-10-11T07:54:18.669Z,13.90
2018-10-11T07:56:46.996Z,14.00
2018-10-11T07:59:15.405Z,13.90
2018-10-11T08:01:43.761Z,14.00
2018-10-11T08:04:12.137Z,14.10
2018-10-11T08:06:40.477Z,14.90
2018-10-11T08:09:08.951Z,14.80
2018-10-11T08:11:37.372Z,14.60
2018-10-11T08:14:05.900Z,14.60
2018-10-11T08:16:34.287Z,14.60
2018-10-11T08:19:02.791Z,14.50
2018-10-11T08:21:31.096Z,14.50
2018-10-11T08:23:59.432Z,14.50
2018-10-11T08:26:28.120Z,14.60
2018-10-11T08:28:56.089Z,14.60
2018-10-11T08:31:24.393Z,14.60
2018-10-11T08:33:52.889Z,14.50
2018-10-11T08:36:21.179Z,14.50
2018-10-11T08:38:49.479Z,14.50
2018-10-11T08:41:17.789Z,14.60
2018-10-11T08:43:46.137Z,14.60
2018-10-11T08:46:14.493Z,14.70
2018-10-11T08:48:42.829Z,14.80
2018-10-11T08:51:11.203Z,14.80
2018-10-11T08:53:39.532Z,14.90
2018-10-11T08:56:08.035Z,15.00
2018-10-11T08:58:36.337Z,15.10
2018-10-11T09:01:04.864Z,15.10
2018-10-11T09:03:33.311Z,15.30
2018-10-11T09:06:01.697Z,15.30
2018-10-11T09:08:30.042Z,15.40
2018-10-11T09:10:58.474Z,15.40
2018-10-11T09:13:26.781Z,15.40
2018-10-11T09:15:55.262Z,15.40
2018-10-11T09:18:23.680Z,15.50
2018-10-11T09:20:51.978Z,15.50
2018-10-11T09:23:20.315Z,15.60
2018-10-11T09:25:48.640Z,15.60
2018-10-11T09:28:17.021Z,15.70
2018-10-11T09:30:45.317Z,15.70
2018-10-11T09:33:13.772Z,15.80
2018-10-11T09:35:42.061Z,15.90
2018-10-11T09:38:10.398Z,16.00
2018-10-11T09:40:38.705Z,16.00
2018-10-11T09:43:07.029Z,16.10
2018-10-11T09:45:35.332Z,16.10
2018-10-11T09:48:03.657Z,16.20
2018-10-11T09:50:31.933Z,16.30
2018-10-11T09:53:00.292Z,16.40
2018-10-11T09:55:28.632Z,16.50
2018-10-11T09:57:56.984Z,16.50
2018-10-11T10:00:30.762Z,16.50
2018-10-11T10:02:59.084Z,16.60
2018-10-11T10:05:27.357Z,16.60
2018-10-11T10:07:55.676Z,16.70
2018-10-11T10:10:23.954Z,16.70
2018-10-11T10:12:52.348Z,16.80
2018-10-11T10:15:20.731Z,16.90
2018-10-11T10:17:48.964Z,17.00
2018-10-11T10:20:17.269Z,17.00
2018-10-11T10:22:45.593Z,16.90
2018-10-11T10:25:13.892Z,17.00
2018-10-11T10:27:42.196Z,17.00
2018-10-11T10:30:15.917Z,17.00
2018-10-11T10:32:44.225Z,17.00
2018-10-11T10:35:12.512Z,17.00
2018-10-11T10:37:40.829Z,17.00
2018-10-11T10:40:09.346Z,17.00
2018-10-11T10:42:37.676Z,17.00
2018-10-11T10:45:06.575Z,17.10
2018-10-11T10:47:34.937Z,17.10
2018-10-11T10:50:03.248Z,17.20
2018-10-11T10:52:31.564Z,17.20
2018-10-11T10:54:59.845Z,17.20
2018-10-11T10:57:28.139Z,17.30
2018-10-11T10:59:56.473Z,17.30
2018-10-11T11:02:24.849Z,17.30
2018-10-11T11:04:53.136Z,17.40
2018-10-11T11:07:21.516Z,17.50
2018-10-11T11:09:49.773Z,17.50
2018-10-11T11:12:18.104Z,17.60
2018-10-11T11:14:46.430Z,17.70
2018-10-11T11:17:14.750Z,17.70
2018-10-11T11:19:43.044Z,17.80
2018-10-11T11:22:11.445Z,17.80
2018-10-11T11:24:39.737Z,17.90
2018-10-11T11:27:08.017Z,17.90
2018-10-11T11:29:36.341Z,18.00
2018-10-11T11:32:04.638Z,18.00
2018-10-11T11:34:32.904Z,18.00
2018-10-11T11:37:01.477Z,18.00
2018-10-11T11:39:29.775Z,18.10
2018-10-11T11:41:58.070Z,18.10
2018-10-11T11:44:26.429Z,18.20
2018-10-11T11:46:55.049Z,18.20
2018-10-11T11:49:23.340Z,18.30
2018-10-11T11:51:51.852Z,18.20
2018-10-11T11:54:21.317Z,18.20
2018-10-11T11:56:50.305Z,18.30
2018-10-11T11:59:18.686Z,18.20
2018-10-11T12:01:46.917Z,18.20
2018-10-11T12:04:15.254Z,18.20
2018-10-11T12:06:43.585Z,18.30
2018-10-11T12:09:13.149Z,18.30
2018-10-11T12:11:41.709Z,18.30
2018-10-11T12:14:10.077Z,18.30
2018-10-11T12:16:38.841Z,18.40
2018-10-11T12:19:08.068Z,18.50
2018-10-11T12:21:36.400Z,18.50
2018-10-11T12:24:04.705Z,18.60
2018-10-11T12:26:33.017Z,18.50
2018-10-11T12:29:01.549Z,18.50
2018-10-11T12:31:29.790Z,18.60
2018-10-11T12:33:58.093Z,18.60
2018-10-11T12:36:26.413Z,18.70
2018-10-11T12:38:55.775Z,18.60
2018-10-11T12:41:23.393Z,18.60
2018-10-11T12:43:51.737Z,18.50
2018-10-11T12:46:20.279Z,18.60
2018-10-11T12:48:48.573Z,18.50
2018-10-11T12:51:16.922Z,18.60
2018-10-11T12:53:48.304Z,18.50
2018-10-11T12:56:13.890Z,18.60
2018-10-11T12:58:42.203Z,18.70
2018-10-11T13:01:10.500Z,18.70
2018-10-11T13:03:38.805Z,18.80
2018-10-11T13:06:07.161Z,18.70
2018-10-11T13:08:35.465Z,18.70
2018-10-11T13:11:03.748Z,18.70
2018-10-11T13:13:32.081Z,18.70
2018-10-11T13:16:02.839Z,18.60
2018-10-11T13:18:28.695Z,18.70
2018-10-11T13:20:57.013Z,18.90
2018-10-11T13:23:25.300Z,18.90
2018-10-11T13:25:53.721Z,19.10
2018-10-11T13:28:22.062Z,19.10
2018-10-11T13:30:50.359Z,19.10
2018-10-11T13:33:18.672Z,19.20
2018-10-11T13:35:47.010Z,19.20
2018-10-11T13:38:15.337Z,19.20
2018-10-11T13:40:43.788Z,19.20
2018-10-11T13:43:12.158Z,19.20
2018-10-11T13:45:40.730Z,19.20
2018-10-11T13:48:09.041Z,19.10
2018-10-11T13:50:37.360Z,19.10
2018-10-11T13:53:05.866Z,19.10
2018-10-11T13:55:34.145Z,19.10
2018-10-11T13:58:02.485Z,19.10
2018-10-11T14:00:31.079Z,19.20
2018-10-11T14:02:59.377Z,19.10
2018-10-11T14:05:27.699Z,19.10
2018-10-11T14:07:56.344Z,19.10
2018-10-11T14:10:24.787Z,19.00
2018-10-11T14:12:53.102Z,19.00
2018-10-11T14:15:22.698Z,19.00
2018-10-11T14:17:51.050Z,18.90
2018-10-11T14:20:19.362Z,19.00
2018-10-11T14:22:47.649Z,19.00
2018-10-11T14:25:15.941Z,18.90
2018-10-11T14:27:44.376Z,18.90
2018-10-11T14:30:12.672Z,18.90
2018-10-11T14:32:40.962Z,19.00
2018-10-11T14:35:09.268Z,19.00
2018-10-11T14:37:37.550Z,19.00
2018-10-11T14:40:05.907Z,19.00
2018-10-11T14:42:34.252Z,19.00
2018-10-11T14:45:02.544Z,19.00
2018-10-11T14:47:30.821Z,19.00
2018-10-11T14:49:59.144Z,18.90
2018-10-11T14:52:27.477Z,18.90
2018-10-11T14:54:55.768Z,18.80
2018-10-11T14:57:24.175Z,18.70
2018-10-11T14:59:52.417Z,18.80
2018-10-11T15:02:21.733Z,18.70
2018-10-11T15:04:50.282Z,18.70
2018-10-11T15:07:18.593Z,18.70
2018-10-11T15:09:46.972Z,18.70
2018-10-11T15:12:15.379Z,18.70
2018-10-11T15:14:43.809Z,18.70
2018-10-11T15:17:12.206Z,18.60
2018-10-11T15:19:40.525Z,18.60
2018-10-11T15:22:08.813Z,18.60
2018-10-11T15:24:37.260Z,18.60
2018-10-11T15:27:05.589Z,18.50
2018-10-11T15:29:33.896Z,18.50
2018-10-11T15:32:02.266Z,18.50
2018-10-11T15:34:30.688Z,18.40
2018-10-11T15:36:58.974Z,18.40
2018-10-11T15:39:27.345Z,18.40
2018-10-11T15:41:55.657Z,18.30
2018-10-11T15:44:23.951Z,18.30
2018-10-11T15:46:52.327Z,18.30
2018-10-11T15:49:20.728Z,18.30
2018-10-11T15:51:49.101Z,18.20
2018-10-11T15:54:17.660Z,18.20
2018-10-11T15:56:45.985Z,18.00
2018-10-11T15:59:14.278Z,18.00
2018-10-11T16:01:43.916Z,17.90
2018-10-11T16:04:12.476Z,17.80
2018-10-11T16:06:40.869Z,17.80
2018-10-11T16:09:09.979Z,17.70
2018-10-11T16:11:38.204Z,17.70
2018-10-11T16:14:06.492Z,17.50
2018-10-11T16:16:34.789Z,17.60
2018-10-11T16:19:03.116Z,17.50
2018-10-11T16:21:31.517Z,17.30
2018-10-11T16:23:59.857Z,17.10
2018-10-11T16:26:28.372Z,16.90
2018-10-11T16:28:56.965Z,16.70
2018-10-11T16:31:25.391Z,16.60
2018-10-11T16:33:53.762Z,16.60
2018-10-11T16:36:22.278Z,16.50
2018-10-11T16:38:50.675Z,16.40
2018-10-11T16:41:19.161Z,16.30
2018-10-11T16:43:48.185Z,16.10
2018-10-11T16:46:16.648Z,15.90
2018-10-11T16:48:45.155Z,15.70
2018-10-11T16:51:13.580Z,15.50
2018-10-11T16:53:41.985Z,15.40
2018-10-11T16:56:10.344Z,15.20
2018-10-11T16:58:38.676Z,15.10
2018-10-11T17:01:07.445Z,15.00
2018-10-11T17:03:35.772Z,14.90
2018-10-11T17:06:04.369Z,14.70
2018-10-11T17:08:32.672Z,14.50
2018-10-11T17:11:00.998Z,14.50
2018-10-11T17:13:29.352Z,14.50
2018-10-11T17:15:57.832Z,14.50
2018-10-11T17:18:26.196Z,14.30
2018-10-11T17:20:54.533Z,14.20
2018-10-11T17:23:22.929Z,14.20
2018-10-11T17:25:51.281Z,14.10
2018-10-11T17:28:19.640Z,13.90
2018-10-11T17:30:47.940Z,13.60
2018-10-11T17:33:16.301Z,13.50
2018-10-11T17:35:44.661Z,13.30
2018-10-11T17:38:12.958Z,13.20
2018-10-11T17:40:41.298Z,13.10
2018-10-11T17:43:09.592Z,13.20
2018-10-11T17:45:37.940Z,13.10
2018-10-11T17:48:06.346Z,13.20
2018-10-11T17:50:34.681Z,13.10
2018-10-11T17:53:02.993Z,13.00
2018-10-11T17:55:31.351Z,13.00
2018-10-11T17:57:59.846Z,12.90
2018-10-11T18:00:28.184Z,12.60
2018-10-11T18:02:56.568Z,12.40
2018-10-11T18:05:24.881Z,12.20
2018-10-11T18:07:53.269Z,11.90
2018-10-11T18:10:21.659Z,11.80
2018-10-11T18:12:49.953Z,11.70
2018-10-11T18:15:19.149Z,11.60
2018-10-11T18:17:47.577Z,11.70
2018-10-11T18:20:15.943Z,11.80
2018-10-11T18:22:44.274Z,11.90
2018-10-11T18:25:12.609Z,11.90
2018-10-11T18:27:40.961Z,11.80
2018-10-11T18:30:10.437Z,11.80
2018-10-11T18:32:38.969Z,11.80
2018-10-11T18:35:08.328Z,11.70
2018-10-11T18:37:36.630Z,11.70
2018-10-11T18:40:05.134Z,11.80
2018-10-11T18:42:33.459Z,11.80
2018-10-11T18:45:01.786Z,11.70
2018-10-11T18:47:30.169Z,11.70
2018-10-11T18:49:58.577Z,11.60
2018-10-11T18:52:27.911Z,11.70
2018-10-11T18:54:56.277Z,11.60
2018-10-11T18:57:24.609Z,11.60
2018-10-11T18:59:52.920Z,11.40
2018-10-11T19:02:21.297Z,11.30
2018-10-11T19:04:49.632Z,11.20
2018-10-11T19:07:18.025Z,11.00
2018-10-11T19:09:46.597Z,10.80
2018-10-11T19:12:14.885Z,10.70
2018-10-11T19:14:43.181Z,10.50
2018-10-11T19:17:11.518Z,10.50
2018-10-11T19:19:39.829Z,10.50
2018-10-11T19:22:08.802Z,10.40
2018-10-11T19:24:37.184Z,10.30
2018-10-11T19:27:05.496Z,10.30
2018-10-11T19:29:33.801Z,10.20
2018-10-11T19:32:02.173Z,10.10
2018-10-11T19:34:30.544Z,10.10
2018-10-11T19:36:59.325Z,10.10
2018-10-11T19:39:27.815Z,10.00
2018-10-11T19:41:56.030Z,9.90
2018-10-11T19:44:24.441Z,9.80
2018-10-11T19:46:52.846Z,9.80
2018-10-11T19:49:21.161Z,9.70
2018-10-11T19:51:49.456Z,9.70
2018-10-11T19:54:18.372Z,9.60
2018-10-11T19:56:46.686Z,9.50
2018-10-11T19:59:15.007Z,9.40
2018-10-11T20:01:43.353Z,9.30
2018-10-11T20:04:11.695Z,9.30
2018-10-11T20:06:40.026Z,9.30
2018-10-11T20:09:09.193Z,9.30
2018-10-11T20:11:37.646Z,9.20
2018-10-11T20:14:06.592Z,9.20
2018-10-11T20:16:34.942Z,9.30
2018-10-11T20:19:03.286Z,9.20
2018-10-11T20:21:31.613Z,9.00
2018-10-11T20:24:00.552Z,8.90
2018-10-11T20:26:28.861Z,8.80
2018-10-11T20:28:57.153Z,8.70
2018-10-11T20:31:25.564Z,8.60
2018-10-11T20:33:53.873Z,8.60
2018-10-11T20:36:22.198Z,8.50
2018-10-11T20:38:50.560Z,8.50
2018-10-11T20:41:18.853Z,8.50
2018-10-11T20:43:47.180Z,8.40
2018-10-11T20:46:15.483Z,8.50
2018-10-11T20:48:43.784Z,8.50
2018-10-11T20:51:12.141Z,8.70
2018-10-11T20:53:40.493Z,8.70
2018-10-11T20:56:08.847Z,8.70
2018-10-11T20:58:37.159Z,8.70
2018-10-11T21:01:05.848Z,8.60
2018-10-11T21:03:34.156Z,8.60
2018-10-11T21:06:02.433Z,8.70
2018-10-11T21:08:30.788Z,8.70
2018-10-11T21:10:59.170Z,8.70
2018-10-11T21:13:27.478Z,8.60
2018-10-11T21:15:55.795Z,8.50
2018-10-11T21:18:24.104Z,8.50
2018-10-11T21:20:52.448Z,8.30
2018-10-11T21:23:20.812Z,8.30
2018-10-11T21:25:49.136Z,8.20
2018-10-11T21:28:17.490Z,8.20
2018-10-11T21:30:45.764Z,8.20
2018-10-11T21:33:14.117Z,8.20
2018-10-11T21:35:42.424Z,8.20
2018-10-11T21:38:10.781Z,8.30
2018-10-11T21:40:39.092Z,8.40
2018-10-11T21:43:07.407Z,8.50
2018-10-11T21:45:35.766Z,8.50
2018-10-11T21:48:04.072Z,8.50
2018-10-11T21:50:32.425Z,8.50
2018-10-11T21:53:00.821Z,8.50
2018-10-11T21:55:31.165Z,8.40
2018-10-11T21:57:59.455Z,8.50
2018-10-11T22:00:33.268Z,8.50
2018-10-11T22:03:01.574Z,8.50
2018-10-11T22:05:29.940Z,8.40
2018-10-11T22:07:58.376Z,8.30
2018-10-11T22:10:26.705Z,8.40
2018-10-11T22:12:55.093Z,8.50
2018-10-11T22:15:23.766Z,8.50
2018-10-11T22:17:52.193Z,8.40
2018-10-11T22:20:20.557Z,8.40
2018-10-11T22:22:48.980Z,8.30
2018-10-11T22:25:17.313Z,8.30
2018-10-11T22:27:45.661Z,8.20
2018-10-11T22:30:14.037Z,8.10
2018-10-11T22:32:42.322Z,8.00
2018-10-11T22:35:10.645Z,7.90
2018-10-11T22:37:38.964Z,7.90
2018-10-11T22:40:07.302Z,7.80
2018-10-11T22:42:35.620Z,7.80
2018-10-11T22:45:04.030Z,7.70
2018-10-11T22:47:32.345Z,7.70
2018-10-11T22:50:00.646Z,7.70
2018-10-11T22:52:29.021Z,7.70
2018-10-11T22:54:57.382Z,7.70
2018-10-11T22:57:25.716Z,7.70
2018-10-11T22:59:54.044Z,7.70
2018-10-11T23:02:22.321Z,7.70
2018-10-11T23:04:50.615Z,7.60
2018-10-11T23:07:18.960Z,7.60
2018-10-11T23:09:47.266Z,7.50
2018-10-11T23:12:15.600Z,7.40
2018-10-11T23:14:44.263Z,7.20
2018-10-11T23:17:12.574Z,7.20
2018-10-11T23:19:40.865Z,7.10
2018-10-11T23:22:09.440Z,7.10
2018-10-11T23:24:37.757Z,6.90
2018-10-11T23:27:06.149Z,6.80
2018-10-11T23:29:34.537Z,6.80
2018-10-11T23:32:02.888Z,6.70
2018-10-11T23:34:31.185Z,6.70
2018-10-11T23:36:59.552Z,6.60
2018-10-11T23:39:27.872Z,6.60
2018-10-11T23:41:56.202Z,6.60
2018-10-11T23:44:24.585Z,6.70
2018-10-11T23:46:52.937Z,6.60
2018-10-11T23:49:21.245Z,6.60
2018-10-11T23:51:49.580Z,6.60
2018-10-11T23:54:17.877Z,6.80
2018-10-11T23:56:46.838Z,6.80
2018-10-11T23:59:15.241Z,6.80
